Flight Track Log - Related Links

Times and Time Zones

All times are in EDT time to prevent confusion due to time zone crossing. See the UAL4202 flight status page for this flight to view local times or setup timezone preferences in your user account.

Time Position Orientation Groundspeed Altitude Reporting Facility
EDT Latitude Longitude Course Direction KTS MPH feet Rate Location/Type
Sun 05:20:17 PM 40.6500 -74.1833 276° West 188 216 1,500  Level New York TRACON
Sun 05:21:17 PM 40.6667 -74.2500 288° West 216 249 3,400 1,950 Climbing New York TRACON
Sun 05:22:00 PM 40.7344 -74.5279 277° West  Level FlightAware Approximate
Sun 05:22:17 PM 40.6833 -74.3167 288° West 219 252 5,400  Level New York TRACON
Sun 05:23:00 PM 40.7459 -74.6546 277° West  Level FlightAware Approximate
Sun 05:23:11 PM 40.7167 -74.3833 303° West 220 253 7,700  Level New York TRACON
Sun 05:24:00 PM 40.7563 -74.7814 276° West  Level FlightAware Approximate
Sun 05:24:17 PM 40.7500 -74.4667 298° West 232 267 10,100  Level New York TRACON
Sun 05:25:00 PM 40.7660 -74.9083 276° West  Level FlightAware Approximate
Sun 05:25:17 PM 40.7667 -74.5500 285° West 253 291 11,200  Level New York TRACON
Sun 05:26:17 PM 40.7667 -74.6500 270° West 283 326 12,500 1,455 Climbing New York TRACON
Sun 05:26:56 PM 40.7728 -74.7142 277° West 291 335 13,600 1,546 Climbing New York Center
Sun 05:27:54 PM 40.7822 -74.8078 278° West 291 335 15,000 1,462 Climbing New York Center
Sun 05:28:55 PM 40.7889 -74.9178 275° West 297 342 16,500 1,765 Climbing New York Center
Sun 05:29:53 PM 40.7972 -75.0336 275° West 296 341 18,500 1,664 Climbing New York Center
Sun 05:30:54 PM 40.8022 -75.1217 274° West 291 335 19,800 1,438 Climbing New York Center
Sun 05:31:54 PM 40.7758 -75.2131 249° West 277 319 21,400 1,600 Climbing New York Center
Sun 05:32:54 PM 40.7431 -75.3094 246° West 276 318 23,000 1,587 Climbing New York Center
Sun 05:33:55 PM 40.7169 -75.3956 248° West 276 318 24,600 1,525 Climbing New York Center
Sun 05:34:56 PM 40.6842 -75.4836 244° Southwest 276 318 26,100 1,412 Climbing New York Center
Sun 05:35:54 PM 40.6578 -75.5692 248° West 263 303 27,400 966 Climbing New York Center
Sun 05:36:54 PM 40.6294 -75.6494 245° Southwest 258 297 28,000 300 Climbing New York Center
Sun 05:37:54 PM 40.5986 -75.7428 247° West 264 304 28,000 446 Level New York Center
Sun 05:38:55 PM 40.5672 -75.8417 247° West 284 327 28,900 1,230 Climbing New York Center
Sun 05:39:56 PM 40.5319 -75.9347 244° Southwest 289 333 30,500 1,261 Climbing New York Center
Sun 05:40:54 PM 40.5008 -76.0278 246° West 289 333 31,400 864 Climbing New York Center
Sun 05:41:54 PM 40.4697 -76.1183 246° West 283 326 32,200 843 Climbing New York Center
Sun 05:42:55 PM 40.4403 -76.2114 247° West 283 326 33,100 836 Climbing New York Center
Sun 05:43:56 PM 40.4067 -76.3069 245° Southwest 289 333 33,900 864 Climbing New York Center
Sun 05:44:53 PM 40.3731 -76.4050 246° West 289 333 34,800 756 Climbing New York Center
Sun 05:45:55 PM 40.3392 -76.5003 245° Southwest 289 333 35,400 537 Climbing New York Center
Sun 05:46:56 PM 40.3053 -76.5956 245° Southwest 294 338 35,900 303 Climbing New York Center
Sun 05:47:54 PM 40.2792 -76.7050 253° West 299 344 36,000 51 Climbing New York Center
Sun 05:48:54 PM 40.2525 -76.8194 253° West 318 366 36,000  Level New York Center
Sun 05:49:55 PM 40.2233 -76.9367 252° West 332 382 36,000  Level New York Center
Sun 05:50:54 PM 40.1939 -77.0592 253° West 346 398 36,000  Level New York Center
Sun 05:51:55 PM 40.1764 -77.1908 260° West 358 412 36,000  Level New York Center
Sun 05:52:55 PM 40.1733 -77.3264 268° West 366 421 36,000  Level New York Center
Sun 05:53:54 PM 40.1675 -77.4644 267° West 372 428 36,000  Level New York Center
Sun 05:55:34 PM 40.1639 -77.6897 269° West 386 444 36,000  Level Cleveland Center
Sun 05:56:34 PM 40.1589 -77.8256 267° West 386 444 36,000  Level Cleveland Center
Sun 05:57:34 PM 40.1497 -77.9728 265° West 386 444 36,000  Level Cleveland Center
Sun 05:58:34 PM 40.1467 -78.1061 268° West 386 444 36,000  Level Cleveland Center
Sun 05:59:34 PM 40.1411 -78.2419 267° West 381 438 36,000  Level Cleveland Center
Sun 06:00:34 PM 40.1375 -78.3778 268° West 381 438 36,000  Level Cleveland Center
Sun 06:01:34 PM 40.1297 -78.5167 266° West 386 444 36,000  Level Cleveland Center
Sun 06:02:34 PM 40.1258 -78.6497 268° West 386 444 36,000  Level Cleveland Center
Sun 06:03:34 PM 40.1197 -78.7858 267° West 386 444 36,000  Level Cleveland Center
Sun 06:04:34 PM 40.1133 -78.9244 267° West 386 444 36,000  Level Cleveland Center
Sun 06:05:34 PM 40.1069 -79.0631 267° West 386 444 36,000  Level Cleveland Center
Sun 06:06:34 PM 40.1025 -79.1961 268° West 386 444 36,000  Level Cleveland Center
Sun 06:07:34 PM 40.0978 -79.3347 267° West 386 444 36,000  Level Cleveland Center
Sun 06:08:34 PM 40.0908 -79.4706 266° West 386 444 36,000  Level Cleveland Center
Sun 06:09:34 PM 40.0858 -79.6089 267° West 386 444 36,000  Level Cleveland Center
Sun 06:10:34 PM 40.0786 -79.7475 266° West 386 444 36,000  Level Cleveland Center
Sun 06:11:34 PM 40.0733 -79.8831 267° West 386 444 36,000  Level Cleveland Center
Sun 06:12:34 PM 40.0636 -80.0189 265° West 386 444 36,000  Level Cleveland Center
Sun 06:13:34 PM 40.0600 -80.1544 268° West 386 444 36,000  Level Cleveland Center
Sun 06:14:34 PM 40.0500 -80.2903 265° West 386 444 36,000  Level Cleveland Center
Sun 06:15:34 PM 40.0419 -80.4122 265° West 386 444 36,000  Level Cleveland Center
Sun 06:16:34 PM 40.0358 -80.5506 267° West 386 444 36,000  Level Cleveland Center
Sun 06:17:34 PM 40.0275 -80.6861 265° West 386 444 36,000  Level Cleveland Center
Sun 06:18:34 PM 40.0189 -80.8189 265° West 386 444 36,000  Level Cleveland Center
Sun 06:20:13 PM 40.0128 -81.0503 268° West 369 425 36,000  Level Indianapolis Center
Sun 06:21:15 PM 40.0111 -81.1847 269° West 368 423 36,000  Level Indianapolis Center
Sun 06:22:17 PM 40.0097 -81.3183 269° West 366 421 36,000  Level Indianapolis Center
Sun 06:23:19 PM 40.0064 -81.4533 268° West 366 421 36,000  Level Indianapolis Center
Sun 06:24:21 PM 40.0042 -81.5853 269° West 362 417 36,000  Level Indianapolis Center
Sun 06:25:23 PM 40.0011 -81.7192 268° West 364 419 36,000  Level Indianapolis Center
Sun 06:26:25 PM 40.0136 -81.8586 277° West 368 423 36,000  Level Indianapolis Center
Sun 06:27:27 PM 40.0325 -81.9936 280° West 375 432 36,000  Level Indianapolis Center
Sun 06:28:29 PM 40.0514 -82.1272 281° West 374 430 36,000  Level Indianapolis Center
Sun 06:29:31 PM 40.0753 -82.2872 281° West 380 437 36,000  Level Indianapolis Center
Sun 06:30:33 PM 40.0750 -82.4200 270° West 368 423 36,000  Level Indianapolis Center
Sun 06:31:35 PM 40.0683 -82.5508 266° West 358 412 36,000  Level Indianapolis Center
Sun 06:32:37 PM 40.0619 -82.6794 266° West 352 405 36,000  Level Indianapolis Center
Sun 06:33:39 PM 40.0558 -82.8086 267° West 354 407 36,000  Level Indianapolis Center
Sun 06:34:41 PM 40.0486 -82.9361 266° West 350 403 36,000  Level Indianapolis Center
Sun 06:35:43 PM 40.0417 -83.0647 266° West 353 406 36,000  Level Indianapolis Center
Sun 06:36:45 PM 40.0333 -83.2131 266° West 351 404 36,000  Level Indianapolis Center
Sun 06:37:47 PM 40.0261 -83.3447 266° West 362 417 36,000  Level Indianapolis Center
Sun 06:38:49 PM 40.0186 -83.4769 266° West 367 422 36,000  Level Indianapolis Center
Sun 06:39:51 PM 40.0106 -83.6111 266° West 374 430 36,000  Level Indianapolis Center
Sun 06:40:53 PM 40.0025 -83.7469 266° West 377 434 36,000  Level Indianapolis Center
Sun 06:41:55 PM 39.9922 -83.9064 265° West 377 434 36,000  Level Indianapolis Center
Sun 06:42:57 PM 39.9847 -84.0464 266° West 384 442 36,000  Level Indianapolis Center
Sun 06:43:59 PM 39.9750 -84.1825 265° West 378 435 36,000  Level Indianapolis Center
Sun 06:45:01 PM 39.9667 -84.3189 265° West 377 434 36,000  Level Indianapolis Center
Sun 06:46:03 PM 39.9572 -84.4561 265° West 377 434 36,000  Level Indianapolis Center
Sun 06:47:05 PM 39.9489 -84.5914 265° West 373 429 36,000  Level Indianapolis Center
Sun 06:48:07 PM 39.9378 -84.7453 265° West 364 419 36,000  Level Indianapolis Center
Sun 06:49:09 PM 39.9278 -84.8756 264° West 360 414 36,000  Level Indianapolis Center
Sun 06:50:11 PM 39.9197 -84.9986 265° West 368 423 36,000  Level Indianapolis Center
Sun 06:51:13 PM 39.9106 -85.1322 265° West 373 429 36,000  Level Indianapolis Center
Sun 06:52:15 PM 39.8981 -85.2958 264° West 378 435 36,000  Level Indianapolis Center
Sun 06:53:18 PM 39.8886 -85.4303 265° West 375 432 36,000  Level Indianapolis Center
Sun 06:54:20 PM 39.8786 -85.5625 264° West 370 426 36,000  Level Indianapolis Center
Sun 06:55:22 PM 39.8689 -85.6914 264° West 362 417 36,000  Level Indianapolis Center
Sun 06:56:24 PM 39.8586 -85.8186 264° West 357 411 36,000  Level Indianapolis Center
Sun 06:57:26 PM 39.8486 -85.9503 264° West 365 420 36,000  Level Indianapolis Center
Sun 06:58:28 PM 39.8358 -86.1081 264° West 370 426 36,000  Level Indianapolis Center
Sun 06:59:30 PM 39.8256 -86.2314 264° West 373 429 36,000  Level Indianapolis Center
Sun 07:00:32 PM 39.8139 -86.3661 264° West 374 430 36,000  Level Indianapolis Center
Sun 07:01:34 PM 39.7783 -86.5136 253° West 362 417 36,000  Level Indianapolis Center
Sun 07:02:36 PM 39.7483 -86.6358 252° West 359 413 36,000  Level Indianapolis Center
Sun 07:03:38 PM 39.7194 -86.7561 253° West 352 405 36,000  Level Indianapolis Center
Sun 07:04:40 PM 39.6897 -86.8733 252° West 346 398 36,000  Level Indianapolis Center
Sun 07:05:42 PM 39.6617 -86.9886 252° West 339 390 36,000 -48 Level Indianapolis Center
Sun 07:06:44 PM 39.6269 -87.1264 252° West 335 386 35,900 -823 Descending Indianapolis Center
Sun 07:07:46 PM 39.5964 -87.2458 252° West 349 402 34,300 -919 Descending Indianapolis Center
Sun 07:08:48 PM 39.5644 -87.3717 252° West 366 421 34,000 -145 Descending Indianapolis Center
Sun 07:09:50 PM 39.5347 -87.4928 252° West 355 409 34,000  Level Indianapolis Center
Sun 07:10:52 PM 39.5011 -87.6178 251° West 366 421 34,000 -48 Level Indianapolis Center
Sun 07:11:54 PM 39.4694 -87.7444 252° West 371 427 33,900 -1,403 Descending Indianapolis Center
Sun 07:12:56 PM 39.4306 -87.8939 251° West 367 422 31,100 -2,323 Descending Indianapolis Center
Sun 07:13:58 PM 39.3986 -88.0192 252° West 367 422 29,100 -1,951 Descending Indianapolis Center
Sun 07:14:59 PM 39.3642 -88.1522 252° West 387 445 27,100 -2,000 Descending Indianapolis Center
Sun 07:16:01 PM 39.3244 -88.3075 252° West 412 474 25,000 -1,500 Descending Indianapolis Center
Sun 07:17:03 PM 39.2881 -88.4461 251° West 409 471 24,000 -629 Descending Indianapolis Center
Sun 07:18:05 PM 39.2517 -88.5758 250° West 392 451 23,700 -1,065 Descending Indianapolis Center
Sun 07:19:07 PM 39.2189 -88.7003 251° West 371 427 21,800 -1,969 Descending Indianapolis Center
Sun 07:20:16 PM 39.1836 -88.8256 250° West 354 407 19,400 -2,748 Descending Kansas City Center
Sun 07:21:18 PM 39.1464 -88.9661 251° West 347 399 15,800 -2,806 Descending Kansas City Center
Sun 07:22:20 PM 39.1161 -89.0819 251° West 328 377 13,600 -1,935 Descending Kansas City Center
Sun 07:23:22 PM 39.0878 -89.1892 251° West 318 366 11,800 -1,561 Descending Kansas City Center
Sun 07:24:23 PM 39.0647 -89.2947 254° West 288 331 10,400 -1,220 Descending Kansas City Center
Sun 07:25:25 PM 39.0431 -89.3875 253° West 275 316 9,300 -677 Descending Kansas City Center
Sun 07:26:27 PM 39.0222 -89.4808 254° West 274 315 9,000 -145 Descending Kansas City Center
Sun 07:27:29 PM 38.9997 -89.5822 254° West 272 313 9,000  Level Kansas City Center
Sun 07:28:31 PM 38.9475 -89.6556 228° Southwest 280 322 9,000 -435 Level Kansas City Center
Sun 07:29:33 PM 38.8903 -89.7278 225° Southwest 285 328 8,100 -488 Descending Kansas City Center
Sun 07:30:34 PM 38.8367 -89.7947 224° Southwest 275 316 8,000 -341 Descending Kansas City Center
Sun 07:31:36 PM 38.7844 -89.8614 225° Southwest 268 308 7,400 -484 Descending Kansas City Center
Sun 07:32:38 PM 38.7339 -89.9250 224° Southwest 262 302 7,000 -774 Descending Kansas City Center
Sun 07:33:40 PM 38.6883 -89.9783 222° Southwest 241 277 5,800 -1,258 Descending Kansas City Center
Sun 07:34:42 PM 38.6786 -90.0544 261° West 224 258 4,400 -1,113 Descending Kansas City Center
Sun 07:35:44 PM 38.6700 -90.1419 263° West 213 245 3,500 -629 Descending Kansas City Center
Sun 07:36:46 PM 38.6719 -90.2053 272° West 193 222 3,100 -387 Descending Kansas City Center

Login

Don't have an account? Register now (free) for customized features, flight alerts, and more!